Flight Track Log - Related Links

Times and Time Zones

All times are in EDT time to prevent confusion due to time zone crossing. See the CES5388 flight status page for this flight to view local times or setup timezone preferences in your user account.

Time Position Orientation Groundspeed Altitude Reporting Facility
EDT Latitude Longitude Course Direction KTS MPH feet Rate Location/Type
Mon 10:52:00 AM 26.2001 111.0459 43° Northeast  Level Estimated
Mon 10:53:00 AM 26.2753 111.1240 43° Northeast  Level Estimated
Mon 10:54:00 AM 26.3505 111.2022 43° Northeast  Level Estimated
Mon 10:55:00 AM 26.4257 111.2806 43° Northeast  Level Estimated
Mon 10:56:00 AM 26.5008 111.3590 43° Northeast  Level Estimated
Mon 10:57:00 AM 26.5759 111.4376 43° Northeast  Level Estimated
Mon 10:58:00 AM 26.6509 111.5162 43° Northeast  Level Estimated
Mon 10:59:00 AM 26.7259 111.5949 43° Northeast  Level Estimated
Mon 11:00:00 AM 26.8009 111.6738 43° Northeast  Level Estimated
Mon 11:01:00 AM 26.8758 111.7527 43° Northeast  Level Estimated
Mon 11:02:00 AM 26.9506 111.8318 43° Northeast  Level Estimated
Mon 11:03:00 AM 27.0254 111.9110 43° Northeast  Level Estimated
Mon 11:04:00 AM 27.1002 111.9902 43° Northeast  Level Estimated
Mon 11:05:00 AM 27.1749 112.0696 43° Northeast  Level Estimated
Mon 11:06:00 AM 27.2496 112.1491 43° Northeast  Level Estimated
Mon 11:07:00 AM 27.3243 112.2287 43° Northeast  Level Estimated
Mon 11:08:00 AM 27.3989 112.3084 43° Northeast  Level Estimated
Mon 11:09:00 AM 27.4734 112.3882 44° Northeast  Level Estimated
Mon 11:10:00 AM 27.5479 112.4681 44° Northeast  Level Estimated
Mon 11:11:00 AM 27.6224 112.5481 44° Northeast  Level Estimated
Mon 11:12:00 AM 27.6968 112.6283 44° Northeast  Level Estimated
Mon 11:13:00 AM 27.7711 112.7085 44° Northeast  Level Estimated
Mon 11:14:00 AM 27.8454 112.7888 44° Northeast  Level Estimated
Mon 11:15:00 AM 27.9197 112.8693 44° Northeast  Level Estimated
Mon 11:16:00 AM 27.9939 112.9499 44° Northeast  Level Estimated
Mon 11:17:00 AM 28.0681 113.0305 44° Northeast  Level Estimated
Mon 11:18:00 AM 28.1423 113.1113 44° Northeast  Level Estimated
Mon 11:19:00 AM 28.2163 113.1922 44° Northeast  Level Estimated
Mon 11:20:00 AM 28.2904 113.2733 44° Northeast  Level Estimated
Mon 11:21:00 AM 28.3643 113.3544 44° Northeast  Level Estimated
Mon 11:22:00 AM 28.4383 113.4356 44° Northeast  Level Estimated
Mon 11:23:00 AM 28.5122 113.5170 44° Northeast  Level Estimated
Mon 11:24:00 AM 28.5860 113.5984 44° Northeast  Level Estimated
Mon 11:25:00 AM 28.6598 113.6800 44° Northeast  Level Estimated
Mon 11:26:00 AM 28.7335 113.7617 44° Northeast  Level Estimated
Mon 11:27:00 AM 28.8072 113.8435 44° Northeast  Level Estimated
Mon 11:28:00 AM 28.8809 113.9255 44° Northeast  Level Estimated
Mon 11:29:00 AM 28.9545 114.0075 44° Northeast  Level Estimated
Mon 11:30:00 AM 29.0280 114.0897 44° Northeast  Level Estimated
Mon 11:31:00 AM 29.1015 114.1720 44° Northeast  Level Estimated
Mon 11:32:00 AM 29.1749 114.2544 44° Northeast  Level Estimated
Mon 11:33:00 AM 29.2483 114.3369 44° Northeast  Level Estimated
Mon 11:34:00 AM 29.3217 114.4195 44° Northeast  Level Estimated
Mon 11:35:00 AM 29.3950 114.5023 45° Northeast  Level Estimated
Mon 11:36:00 AM 29.4682 114.5851 45° Northeast  Level Estimated
Mon 11:37:00 AM 29.5414 114.6681 45° Northeast  Level Estimated
Mon 11:38:00 AM 29.6145 114.7512 45° Northeast  Level Estimated
Mon 11:39:00 AM 29.6876 114.8344 45° Northeast  Level Estimated
Mon 11:40:00 AM 29.7607 114.9178 45° Northeast  Level Estimated
Mon 11:41:00 AM 29.8336 115.0013 45° Northeast  Level Estimated
Mon 11:42:00 AM 29.9066 115.0849 45° Northeast  Level Estimated
Mon 11:43:00 AM 29.9794 115.1686 45° Northeast  Level Estimated
Mon 11:44:00 AM 30.0523 115.2524 45° Northeast  Level Estimated
Mon 11:45:00 AM 30.1250 115.3364 45° Northeast  Level Estimated
Mon 11:46:00 AM 30.1978 115.4205 45° Northeast  Level Estimated
Mon 11:47:00 AM 30.2704 115.5047 45° Northeast  Level Estimated
Mon 11:48:00 AM 30.3430 115.5890 45° Northeast  Level Estimated
Mon 11:49:00 AM 30.4156 115.6735 45° Northeast  Level Estimated
Mon 11:50:00 AM 30.4881 115.7581 45° Northeast  Level Estimated
Mon 11:51:00 AM 30.5605 115.8428 45° Northeast  Level Estimated
Mon 11:52:00 AM 30.6329 115.9276 45° Northeast  Level Estimated
Mon 11:53:00 AM 30.7053 116.0126 45° Northeast  Level Estimated
Mon 11:54:00 AM 30.7775 116.0977 45° Northeast  Level Estimated
Mon 11:55:00 AM 30.8498 116.1829 45° Northeast  Level Estimated
Mon 11:56:00 AM 30.9219 116.2683 45° Northeast  Level Estimated
Mon 11:57:00 AM 30.9940 116.3538 45° Northeast  Level Estimated
Mon 11:58:00 AM 31.0661 116.4394 45° Northeast  Level Estimated
Mon 11:59:00 AM 31.1381 116.5251 46° Northeast  Level Estimated
Mon 12:00:00 PM 31.2100 116.6110 46° Northeast  Level Estimated
Mon 12:01:00 PM 31.2819 116.6970 46° Northeast  Level Estimated
Mon 12:02:00 PM 31.3538 116.7831 46° Northeast  Level Estimated
Mon 12:03:00 PM 31.4255 116.8694 46° Northeast  Level Estimated
Mon 12:04:00 PM 31.4972 116.9558 46° Northeast  Level Estimated
Mon 12:05:00 PM 31.5689 117.0423 46° Northeast  Level Estimated
Mon 12:06:00 PM 31.6457 117.1352 46° Northeast  Level Estimated
Mon 12:07:00 PM 31.7224 117.2283 46° Northeast  Level Estimated
Mon 12:08:00 PM 31.7800 117.2984 46° Northeast  Level Estimated
Mon 12:09:00 PM 31.7800 117.2984 254° West  Level Estimated
Mon 12:10:00 PM 31.7800 117.2984 254° West  Level Estimated
Mon 12:11:00 PM 31.7800 117.2984 254° West  Level Estimated
Mon 12:12:00 PM 31.7800 117.2984 254° West  Level Estimated
Mon 12:13:00 PM 31.7800 117.2984 254° West  Level Estimated
Mon 12:14:00 PM 31.7800 117.2984 254° West  Level Estimated
Mon 12:15:00 PM 31.7800 117.2984 254° West  Level Estimated
Mon 12:16:00 PM 31.7800 117.2984 254° West  Level Estimated
Mon 12:17:00 PM 31.7800 117.2984 254° West  Level Estimated
Mon 12:18:00 PM 31.7800 117.2984 254° West  Level Estimated

Login

Don't have an account? Register now (free) for customized features, flight alerts, and more!